sensor_id;sensor_type;location;lat;lon;timestamp;P1;durP1;ratioP1;P2;durP2;ratioP2
53714;SDS011;39608;55.630;37.864;2023-06-14T00:04:48;11.10;;;3.92;;
53714;SDS011;39608;55.630;37.864;2023-06-14T00:09:51;14.88;;;4.35;;
53714;SDS011;39608;55.630;37.864;2023-06-14T00:14:54;7.80;;;3.83;;
53714;SDS011;39608;55.630;37.864;2023-06-14T00:19:57;5.93;;;3.10;;
53714;SDS011;39608;55.630;37.864;2023-06-14T00:24:59;15.50;;;4.53;;
53714;SDS011;39608;55.630;37.864;2023-06-14T00:30:03;6.80;;;3.47;;
53714;SDS011;39608;55.630;37.864;2023-06-14T00:35:06;6.68;;;3.50;;
53714;SDS011;39608;55.630;37.864;2023-06-14T00:40:08;7.97;;;3.67;;
53714;SDS011;39608;55.630;37.864;2023-06-14T00:45:15;11.18;;;4.05;;
53714;SDS011;39608;55.630;37.864;2023-06-14T00:50:17;7.13;;;3.47;;
53714;SDS011;39608;55.630;37.864;2023-06-14T00:55:20;8.80;;;3.08;;
53714;SDS011;39608;55.630;37.864;2023-06-14T01:00:24;8.00;;;3.42;;
53714;SDS011;39608;55.630;37.864;2023-06-14T01:05:26;12.32;;;3.53;;
53714;SDS011;39608;55.630;37.864;2023-06-14T01:10:32;5.70;;;3.17;;
53714;SDS011;39608;55.630;37.864;2023-06-14T01:15:40;6.28;;;4.00;;
53714;SDS011;39608;55.630;37.864;2023-06-14T01:20:44;13.48;;;3.80;;
53714;SDS011;39608;55.630;37.864;2023-06-14T01:25:51;9.65;;;3.42;;
53714;SDS011;39608;55.630;37.864;2023-06-14T01:30:53;7.60;;;3.95;;
53714;SDS011;39608;55.630;37.864;2023-06-14T01:35:56;11.57;;;4.03;;
53714;SDS011;39608;55.630;37.864;2023-06-14T01:41:00;18.48;;;3.97;;
53714;SDS011;39608;55.630;37.864;2023-06-14T01:46:02;11.10;;;3.40;;
53714;SDS011;39608;55.630;37.864;2023-06-14T01:51:05;11.65;;;3.67;;
53714;SDS011;39608;55.630;37.864;2023-06-14T01:56:09;8.63;;;3.53;;
53714;SDS011;39608;55.630;37.864;2023-06-14T02:01:11;8.20;;;3.20;;
53714;SDS011;39608;55.630;37.864;2023-06-14T02:06:13;6.05;;;3.50;;
53714;SDS011;39608;55.630;37.864;2023-06-14T02:11:17;11.10;;;4.22;;
53714;SDS011;39608;55.630;37.864;2023-06-14T02:16:19;16.10;;;4.07;;
53714;SDS011;39608;55.630;37.864;2023-06-14T02:21:22;17.95;;;5.45;;
53714;SDS011;39608;55.630;37.864;2023-06-14T02:26:26;11.43;;;5.40;;
53714;SDS011;39608;55.630;37.864;2023-06-14T02:31:29;14.48;;;6.13;;
53714;SDS011;39608;55.630;37.864;2023-06-14T02:36:31;18.17;;;6.97;;
53714;SDS011;39608;55.630;37.864;2023-06-14T02:41:34;18.58;;;6.53;;
53714;SDS011;39608;55.630;37.864;2023-06-14T02:46:36;14.88;;;6.05;;
53714;SDS011;39608;55.630;37.864;2023-06-14T02:51:39;16.48;;;6.60;;
53714;SDS011;39608;55.630;37.864;2023-06-14T02:56:43;24.73;;;7.35;;
53714;SDS011;39608;55.630;37.864;2023-06-14T03:01:45;16.67;;;6.93;;
53714;SDS011;39608;55.630;37.864;2023-06-14T03:06:48;18.98;;;7.85;;
53714;SDS011;39608;55.630;37.864;2023-06-14T03:11:52;13.57;;;6.85;;
53714;SDS011;39608;55.630;37.864;2023-06-14T03:16:54;18.80;;;7.40;;
53714;SDS011;39608;55.630;37.864;2023-06-14T03:21:57;17.05;;;6.53;;
53714;SDS011;39608;55.630;37.864;2023-06-14T03:27:00;14.05;;;6.80;;
53714;SDS011;39608;55.630;37.864;2023-06-14T03:32:03;20.73;;;6.55;;
53714;SDS011;39608;55.630;37.864;2023-06-14T03:37:05;22.20;;;7.75;;
53714;SDS011;39608;55.630;37.864;2023-06-14T03:42:09;17.77;;;7.03;;
53714;SDS011;39608;55.630;37.864;2023-06-14T03:47:11;36.80;;;9.00;;
53714;SDS011;39608;55.630;37.864;2023-06-14T03:52:13;24.25;;;7.78;;
53714;SDS011;39608;55.630;37.864;2023-06-14T03:57:18;19.52;;;8.13;;
53714;SDS011;39608;55.630;37.864;2023-06-14T04:02:20;23.52;;;9.18;;
53714;SDS011;39608;55.630;37.864;2023-06-14T04:07:22;24.58;;;8.38;;
53714;SDS011;39608;55.630;37.864;2023-06-14T04:12:26;22.45;;;7.22;;
53714;SDS011;39608;55.630;37.864;2023-06-14T04:17:28;25.58;;;7.22;;
53714;SDS011;39608;55.630;37.864;2023-06-14T04:22:30;15.60;;;6.35;;
53714;SDS011;39608;55.630;37.864;2023-06-14T04:27:35;14.95;;;5.90;;
53714;SDS011;39608;55.630;37.864;2023-06-14T04:32:37;19.70;;;7.93;;
53714;SDS011;39608;55.630;37.864;2023-06-14T04:37:39;8.73;;;4.90;;
53714;SDS011;39608;55.630;37.864;2023-06-14T04:42:45;10.40;;;5.63;;
53714;SDS011;39608;55.630;37.864;2023-06-14T04:47:47;10.70;;;5.07;;
53714;SDS011;39608;55.630;37.864;2023-06-14T04:52:50;12.27;;;5.18;;
53714;SDS011;39608;55.630;37.864;2023-06-14T04:57:55;12.60;;;4.97;;
53714;SDS011;39608;55.630;37.864;2023-06-14T05:02:57;12.93;;;4.55;;
53714;SDS011;39608;55.630;37.864;2023-06-14T05:08:01;15.70;;;4.65;;
53714;SDS011;39608;55.630;37.864;2023-06-14T05:13:05;14.35;;;4.05;;
53714;SDS011;39608;55.630;37.864;2023-06-14T05:18:07;11.75;;;4.70;;
53714;SDS011;39608;55.630;37.864;2023-06-14T05:23:10;21.42;;;4.13;;
53714;SDS011;39608;55.630;37.864;2023-06-14T05:28:17;10.57;;;4.28;;
53714;SDS011;39608;55.630;37.864;2023-06-14T05:33:19;15.50;;;4.80;;
53714;SDS011;39608;55.630;37.864;2023-06-14T05:38:21;20.20;;;5.07;;
53714;SDS011;39608;55.630;37.864;2023-06-14T05:43:25;13.73;;;4.40;;
53714;SDS011;39608;55.630;37.864;2023-06-14T05:48:27;17.05;;;3.95;;
53714;SDS011;39608;55.630;37.864;2023-06-14T05:53:29;13.43;;;3.35;;
53714;SDS011;39608;55.630;37.864;2023-06-14T05:58:33;4.13;;;3.03;;
53714;SDS011;39608;55.630;37.864;2023-06-14T06:03:35;5.57;;;2.95;;
53714;SDS011;39608;55.630;37.864;2023-06-14T06:08:51;6.37;;;2.23;;
53714;SDS011;39608;55.630;37.864;2023-06-14T06:14:49;8.45;;;2.47;;
53714;SDS011;39608;55.630;37.864;2023-06-14T06:20:05;8.18;;;2.75;;
53714;SDS011;39608;55.630;37.864;2023-06-14T06:58:25;13.45;;;1.83;;
53714;SDS011;39608;55.630;37.864;2023-06-14T07:03:28;3.88;;;1.98;;
53714;SDS011;39608;55.630;37.864;2023-06-14T07:08:32;7.47;;;2.00;;
53714;SDS011;39608;55.630;37.864;2023-06-14T07:13:34;7.60;;;1.92;;
53714;SDS011;39608;55.630;37.864;2023-06-14T07:18:37;6.80;;;2.10;;
53714;SDS011;39608;55.630;37.864;2023-06-14T07:23:40;5.68;;;2.25;;
53714;SDS011;39608;55.630;37.864;2023-06-14T07:28:43;6.75;;;1.77;;
53714;SDS011;39608;55.630;37.864;2023-06-14T07:33:46;5.25;;;2.25;;
53714;SDS011;39608;55.630;37.864;2023-06-14T07:38:50;4.15;;;1.98;;
53714;SDS011;39608;55.630;37.864;2023-06-14T07:43:54;3.20;;;1.80;;
53714;SDS011;39608;55.630;37.864;2023-06-14T07:48:58;3.10;;;1.88;;
53714;SDS011;39608;55.630;37.864;2023-06-14T07:54:29;9.43;;;2.10;;
53714;SDS011;39608;55.630;37.864;2023-06-14T07:59:44;6.32;;;1.83;;
53714;SDS011;39608;55.630;37.864;2023-06-14T08:05:14;4.70;;;3.53;;
53714;SDS011;39608;55.630;37.864;2023-06-14T08:10:26;5.38;;;2.38;;
53714;SDS011;39608;55.630;37.864;2023-06-14T08:16:02;5.97;;;2.05;;
53714;SDS011;39608;55.630;37.864;2023-06-14T08:21:09;3.10;;;1.65;;
53714;SDS011;39608;55.630;37.864;2023-06-14T08:26:16;3.95;;;1.90;;
53714;SDS011;39608;55.630;37.864;2023-06-14T08:31:22;8.00;;;2.20;;
53714;SDS011;39608;55.630;37.864;2023-06-14T08:36:24;4.85;;;2.10;;
53714;SDS011;39608;55.630;37.864;2023-06-14T08:41:28;8.60;;;2.00;;
53714;SDS011;39608;55.630;37.864;2023-06-14T08:46:30;4.78;;;1.95;;
53714;SDS011;39608;55.630;37.864;2023-06-14T08:51:35;5.60;;;1.85;;
53714;SDS011;39608;55.630;37.864;2023-06-14T08:56:45;4.35;;;1.90;;
53714;SDS011;39608;55.630;37.864;2023-06-14T09:01:50;5.90;;;2.13;;
53714;SDS011;39608;55.630;37.864;2023-06-14T09:06:53;5.22;;;1.90;;
53714;SDS011;39608;55.630;37.864;2023-06-14T09:11:57;11.55;;;2.13;;
53714;SDS011;39608;55.630;37.864;2023-06-14T09:17:00;7.50;;;2.38;;
53714;SDS011;39608;55.630;37.864;2023-06-14T09:22:03;7.05;;;2.30;;
53714;SDS011;39608;55.630;37.864;2023-06-14T09:27:27;4.57;;;2.08;;
53714;SDS011;39608;55.630;37.864;2023-06-14T09:32:42;7.43;;;1.95;;
53714;SDS011;39608;55.630;37.864;2023-06-14T09:37:55;5.38;;;2.47;;
53714;SDS011;39608;55.630;37.864;2023-06-14T09:55:50;2.55;;;1.88;;
53714;SDS011;39608;55.630;37.864;2023-06-14T10:01:30;4.38;;;2.30;;
53714;SDS011;39608;55.630;37.864;2023-06-14T10:13:06;7.32;;;1.95;;
53714;SDS011;39608;55.630;37.864;2023-06-14T10:38:51;6.75;;;2.45;;
53714;SDS011;39608;55.630;37.864;2023-06-14T10:44:41;8.90;;;2.28;;
53714;SDS011;39608;55.630;37.864;2023-06-14T10:49:50;7.80;;;2.08;;
53714;SDS011;39608;55.630;37.864;2023-06-14T10:55:24;6.70;;;2.17;;
53714;SDS011;39608;55.630;37.864;2023-06-14T11:00:50;6.22;;;2.25;;
53714;SDS011;39608;55.630;37.864;2023-06-14T11:05:59;5.97;;;2.30;;
53714;SDS011;39608;55.630;37.864;2023-06-14T11:11:18;2.10;;;1.90;;
53714;SDS011;39608;55.630;37.864;2023-06-14T11:16:26;8.40;;;2.20;;
53714;SDS011;39608;55.630;37.864;2023-06-14T11:21:32;4.68;;;2.30;;
53714;SDS011;39608;55.630;37.864;2023-06-14T11:26:41;6.50;;;2.42;;
53714;SDS011;39608;55.630;37.864;2023-06-14T11:31:45;4.15;;;1.92;;
53714;SDS011;39608;55.630;37.864;2023-06-14T11:36:47;14.65;;;2.20;;
53714;SDS011;39608;55.630;37.864;2023-06-14T11:41:49;4.90;;;2.10;;
53714;SDS011;39608;55.630;37.864;2023-06-14T11:46:53;8.48;;;2.20;;
53714;SDS011;39608;55.630;37.864;2023-06-14T11:51:57;6.15;;;1.85;;
53714;SDS011;39608;55.630;37.864;2023-06-14T11:56:59;3.67;;;1.90;;
53714;SDS011;39608;55.630;37.864;2023-06-14T12:02:04;2.33;;;2.00;;
53714;SDS011;39608;55.630;37.864;2023-06-14T12:12:15;4.43;;;2.00;;
53714;SDS011;39608;55.630;37.864;2023-06-14T12:17:18;5.18;;;1.90;;
53714;SDS011;39608;55.630;37.864;2023-06-14T12:22:21;2.80;;;2.10;;
53714;SDS011;39608;55.630;37.864;2023-06-14T12:27:23;3.05;;;1.95;;
53714;SDS011;39608;55.630;37.864;2023-06-14T12:32:30;3.67;;;2.13;;
53714;SDS011;39608;55.630;37.864;2023-06-14T12:37:37;2.85;;;2.08;;
53714;SDS011;39608;55.630;37.864;2023-06-14T12:42:39;3.30;;;1.90;;
53714;SDS011;39608;55.630;37.864;2023-06-14T12:47:49;7.55;;;2.50;;
53714;SDS011;39608;55.630;37.864;2023-06-14T12:52:52;4.43;;;2.00;;
53714;SDS011;39608;55.630;37.864;2023-06-14T12:57:54;5.85;;;2.20;;
53714;SDS011;39608;55.630;37.864;2023-06-14T13:03:00;6.25;;;2.10;;
53714;SDS011;39608;55.630;37.864;2023-06-14T13:08:06;3.58;;;2.13;;
53714;SDS011;39608;55.630;37.864;2023-06-14T13:13:09;2.95;;;2.13;;
53714;SDS011;39608;55.630;37.864;2023-06-14T13:18:18;12.18;;;2.10;;
53714;SDS011;39608;55.630;37.864;2023-06-14T13:23:20;6.20;;;2.28;;
53714;SDS011;39608;55.630;37.864;2023-06-14T13:28:25;10.03;;;2.20;;
53714;SDS011;39608;55.630;37.864;2023-06-14T13:33:28;4.22;;;2.13;;
53714;SDS011;39608;55.630;37.864;2023-06-14T13:38:31;7.32;;;1.75;;
53714;SDS011;39608;55.630;37.864;2023-06-14T13:43:33;3.28;;;1.92;;
53714;SDS011;39608;55.630;37.864;2023-06-14T13:48:36;7.20;;;2.03;;
53714;SDS011;39608;55.630;37.864;2023-06-14T13:53:38;3.45;;;1.95;;
53714;SDS011;39608;55.630;37.864;2023-06-14T13:58:41;3.03;;;1.65;;
53714;SDS011;39608;55.630;37.864;2023-06-14T14:03:44;5.75;;;1.63;;
53714;SDS011;39608;55.630;37.864;2023-06-14T14:08:46;10.48;;;2.05;;
53714;SDS011;39608;55.630;37.864;2023-06-14T14:13:49;2.03;;;1.83;;
53714;SDS011;39608;55.630;37.864;2023-06-14T14:18:54;6.05;;;1.92;;
53714;SDS011;39608;55.630;37.864;2023-06-14T14:23:56;2.78;;;1.60;;
53714;SDS011;39608;55.630;37.864;2023-06-14T14:28:58;3.08;;;1.70;;
53714;SDS011;39608;55.630;37.864;2023-06-14T14:34:02;6.10;;;2.00;;
53714;SDS011;39608;55.630;37.864;2023-06-14T14:39:04;4.05;;;1.95;;
53714;SDS011;39608;55.630;37.864;2023-06-14T14:44:07;11.45;;;2.22;;
53714;SDS011;39608;55.630;37.864;2023-06-14T14:49:11;9.52;;;1.83;;
53714;SDS011;39608;55.630;37.864;2023-06-14T14:54:13;3.38;;;1.90;;
53714;SDS011;39608;55.630;37.864;2023-06-14T14:59:15;2.15;;;1.65;;
53714;SDS011;39608;55.630;37.864;2023-06-14T15:04:23;4.63;;;2.38;;
53714;SDS011;39608;55.630;37.864;2023-06-14T15:09:25;6.63;;;2.13;;
53714;SDS011;39608;55.630;37.864;2023-06-14T15:14:28;3.72;;;2.15;;
53714;SDS011;39608;55.630;37.864;2023-06-14T15:19:31;3.45;;;2.10;;
53714;SDS011;39608;55.630;37.864;2023-06-14T15:24:34;2.63;;;1.85;;
53714;SDS011;39608;55.630;37.864;2023-06-14T15:29:36;7.15;;;1.95;;
53714;SDS011;39608;55.630;37.864;2023-06-14T15:34:40;10.80;;;2.10;;
53714;SDS011;39608;55.630;37.864;2023-06-14T15:39:43;7.72;;;2.03;;
53714;SDS011;39608;55.630;37.864;2023-06-14T15:44:45;4.63;;;2.40;;
53714;SDS011;39608;55.630;37.864;2023-06-14T15:49:49;7.28;;;2.10;;
53714;SDS011;39608;55.630;37.864;2023-06-14T15:54:51;9.50;;;2.10;;
53714;SDS011;39608;55.630;37.864;2023-06-14T15:59:53;8.32;;;2.40;;
53714;SDS011;39608;55.630;37.864;2023-06-14T16:05:12;6.32;;;2.05;;
53714;SDS011;39608;55.630;37.864;2023-06-14T16:10:14;3.70;;;2.00;;
53714;SDS011;39608;55.630;37.864;2023-06-14T16:15:17;3.67;;;2.13;;
53714;SDS011;39608;55.630;37.864;2023-06-14T16:20:20;5.90;;;2.33;;
53714;SDS011;39608;55.630;37.864;2023-06-14T16:25:23;4.95;;;2.35;;
53714;SDS011;39608;55.630;37.864;2023-06-14T16:30:25;3.38;;;2.13;;
53714;SDS011;39608;55.630;37.864;2023-06-14T16:35:29;5.05;;;2.22;;
53714;SDS011;39608;55.630;37.864;2023-06-14T16:40:31;5.38;;;2.15;;
53714;SDS011;39608;55.630;37.864;2023-06-14T16:45:34;13.18;;;3.75;;
53714;SDS011;39608;55.630;37.864;2023-06-14T16:50:37;8.85;;;2.47;;
53714;SDS011;39608;55.630;37.864;2023-06-14T16:55:39;4.18;;;2.33;;
53714;SDS011;39608;55.630;37.864;2023-06-14T17:00:42;4.13;;;2.58;;
53714;SDS011;39608;55.630;37.864;2023-06-14T17:05:55;5.15;;;2.45;;
53714;SDS011;39608;55.630;37.864;2023-06-14T17:10:57;6.60;;;2.53;;
53714;SDS011;39608;55.630;37.864;2023-06-14T17:16:01;9.55;;;2.58;;
53714;SDS011;39608;55.630;37.864;2023-06-14T17:21:04;8.02;;;2.88;;
53714;SDS011;39608;55.630;37.864;2023-06-14T17:26:06;12.85;;;3.03;;
53714;SDS011;39608;55.630;37.864;2023-06-14T17:31:09;7.35;;;2.85;;
53714;SDS011;39608;55.630;37.864;2023-06-14T17:36:13;9.27;;;3.33;;
53714;SDS011;39608;55.630;37.864;2023-06-14T17:41:16;6.85;;;3.00;;
53714;SDS011;39608;55.630;37.864;2023-06-14T17:46:19;4.82;;;2.78;;
53714;SDS011;39608;55.630;37.864;2023-06-14T17:51:22;14.95;;;2.95;;
53714;SDS011;39608;55.630;37.864;2023-06-14T17:56:26;8.68;;;3.28;;
53714;SDS011;39608;55.630;37.864;2023-06-14T18:01:28;8.02;;;3.30;;
53714;SDS011;39608;55.630;37.864;2023-06-14T18:06:32;6.90;;;3.13;;
53714;SDS011;39608;55.630;37.864;2023-06-14T18:11:36;13.15;;;3.08;;
53714;SDS011;39608;55.630;37.864;2023-06-14T18:16:38;6.57;;;3.08;;
53714;SDS011;39608;55.630;37.864;2023-06-14T18:21:42;6.72;;;3.03;;
53714;SDS011;39608;55.630;37.864;2023-06-14T18:26:44;12.23;;;3.70;;
53714;SDS011;39608;55.630;37.864;2023-06-14T18:31:47;8.68;;;3.42;;
53714;SDS011;39608;55.630;37.864;2023-06-14T18:36:50;9.38;;;3.83;;
53714;SDS011;39608;55.630;37.864;2023-06-14T18:41:53;8.35;;;3.55;;
53714;SDS011;39608;55.630;37.864;2023-06-14T18:46:56;6.40;;;3.83;;
53714;SDS011;39608;55.630;37.864;2023-06-14T18:52:00;5.15;;;3.70;;
53714;SDS011;39608;55.630;37.864;2023-06-14T18:57:02;19.23;;;3.60;;
53714;SDS011;39608;55.630;37.864;2023-06-14T19:02:04;11.77;;;4.00;;
53714;SDS011;39608;55.630;37.864;2023-06-14T19:07:08;6.60;;;4.20;;
53714;SDS011;39608;55.630;37.864;2023-06-14T19:12:11;13.57;;;4.40;;
53714;SDS011;39608;55.630;37.864;2023-06-14T19:17:13;8.15;;;3.88;;
53714;SDS011;39608;55.630;37.864;2023-06-14T19:22:17;8.07;;;3.88;;
53714;SDS011;39608;55.630;37.864;2023-06-14T19:27:19;9.35;;;3.95;;
53714;SDS011;39608;55.630;37.864;2023-06-14T19:32:21;10.48;;;3.80;;
53714;SDS011;39608;55.630;37.864;2023-06-14T19:37:24;13.43;;;3.63;;
53714;SDS011;39608;55.630;37.864;2023-06-14T19:42:26;12.43;;;3.70;;
53714;SDS011;39608;55.630;37.864;2023-06-14T19:47:28;7.70;;;3.80;;
53714;SDS011;39608;55.630;37.864;2023-06-14T19:52:32;10.10;;;4.20;;
53714;SDS011;39608;55.630;37.864;2023-06-14T19:57:34;10.18;;;4.15;;
53714;SDS011;39608;55.630;37.864;2023-06-14T20:02:36;11.50;;;3.60;;
53714;SDS011;39608;55.630;37.864;2023-06-14T20:07:40;11.82;;;3.80;;
53714;SDS011;39608;55.630;37.864;2023-06-14T20:12:42;10.13;;;3.63;;
53714;SDS011;39608;55.630;37.864;2023-06-14T20:17:45;11.35;;;4.60;;
53714;SDS011;39608;55.630;37.864;2023-06-14T20:22:48;8.02;;;4.13;;
53714;SDS011;39608;55.630;37.864;2023-06-14T20:27:50;18.55;;;5.55;;
53714;SDS011;39608;55.630;37.864;2023-06-14T20:32:54;15.45;;;5.72;;
53714;SDS011;39608;55.630;37.864;2023-06-14T20:37:57;27.27;;;5.93;;
53714;SDS011;39608;55.630;37.864;2023-06-14T20:42:59;12.55;;;4.68;;
53714;SDS011;39608;55.630;37.864;2023-06-14T20:48:04;7.28;;;4.35;;
53714;SDS011;39608;55.630;37.864;2023-06-14T20:53:07;8.80;;;4.78;;
53714;SDS011;39608;55.630;37.864;2023-06-14T20:58:09;15.43;;;4.22;;
53714;SDS011;39608;55.630;37.864;2023-06-14T21:03:12;9.82;;;4.13;;
53714;SDS011;39608;55.630;37.864;2023-06-14T21:08:16;12.05;;;4.03;;
53714;SDS011;39608;55.630;37.864;2023-06-14T21:13:18;7.47;;;3.75;;
53714;SDS011;39608;55.630;37.864;2023-06-14T21:18:20;5.13;;;3.47;;
53714;SDS011;39608;55.630;37.864;2023-06-14T21:23:23;10.50;;;4.10;;
53714;SDS011;39608;55.630;37.864;2023-06-14T21:28:25;15.25;;;4.00;;
53714;SDS011;39608;55.630;37.864;2023-06-14T21:33:28;9.52;;;3.97;;
53714;SDS011;39608;55.630;37.864;2023-06-14T21:38:31;11.52;;;3.67;;
53714;SDS011;39608;55.630;37.864;2023-06-14T21:43:33;4.60;;;2.95;;
53714;SDS011;39608;55.630;37.864;2023-06-14T21:48:36;10.48;;;3.50;;
53714;SDS011;39608;55.630;37.864;2023-06-14T21:53:40;15.40;;;3.70;;
53714;SDS011;39608;55.630;37.864;2023-06-14T21:58:44;8.75;;;3.17;;
53714;SDS011;39608;55.630;37.864;2023-06-14T22:03:46;4.38;;;2.80;;
53714;SDS011;39608;55.630;37.864;2023-06-14T22:08:49;6.32;;;2.53;;
53714;SDS011;39608;55.630;37.864;2023-06-14T22:13:51;6.30;;;3.03;;
53714;SDS011;39608;55.630;37.864;2023-06-14T22:18:53;4.75;;;2.70;;
53714;SDS011;39608;55.630;37.864;2023-06-14T22:23:58;3.65;;;2.75;;
53714;SDS011;39608;55.630;37.864;2023-06-14T22:29:00;6.53;;;2.67;;
53714;SDS011;39608;55.630;37.864;2023-06-14T22:34:05;3.30;;;2.42;;
53714;SDS011;39608;55.630;37.864;2023-06-14T22:39:09;9.50;;;2.67;;
53714;SDS011;39608;55.630;37.864;2023-06-14T22:44:12;7.53;;;3.08;;
53714;SDS011;39608;55.630;37.864;2023-06-14T22:49:16;4.93;;;2.53;;
53714;SDS011;39608;55.630;37.864;2023-06-14T22:54:20;5.55;;;2.75;;
53714;SDS011;39608;55.630;37.864;2023-06-14T22:59:22;4.78;;;2.20;;
53714;SDS011;39608;55.630;37.864;2023-06-14T23:04:25;8.13;;;2.40;;
53714;SDS011;39608;55.630;37.864;2023-06-14T23:09:29;3.50;;;2.20;;
53714;SDS011;39608;55.630;37.864;2023-06-14T23:14:31;7.75;;;2.70;;
53714;SDS011;39608;55.630;37.864;2023-06-14T23:19:33;9.38;;;3.17;;
53714;SDS011;39608;55.630;37.864;2023-06-14T23:24:37;10.93;;;2.95;;
53714;SDS011;39608;55.630;37.864;2023-06-14T23:29:40;7.35;;;2.70;;
53714;SDS011;39608;55.630;37.864;2023-06-14T23:34:42;8.18;;;2.53;;
53714;SDS011;39608;55.630;37.864;2023-06-14T23:39:46;5.88;;;2.83;;
53714;SDS011;39608;55.630;37.864;2023-06-14T23:44:50;5.75;;;2.38;;
53714;SDS011;39608;55.630;37.864;2023-06-14T23:49:53;4.40;;;2.58;;
53714;SDS011;39608;55.630;37.864;2023-06-14T23:54:56;3.05;;;2.20;;
